Time;durP1;ratioP1;P1;durP2;ratioP2;P2;SDS_P1;SDS_P2;PMS_P1;PMS_P2;Temp;Humidity;BMP_temperature;BMP_pressure;BME280_temperature;BME280_humidity;BME280_pressure;Samples;Min_cycle;Max_cycle;Signal;HPM_P1;HPM_P2
2022/09/12 00:01:07;;;;;;;2.85;2.53;;;;;;;-145.23;100.00;58621.06;4941926;28;20231;-65
2022/09/12 00:03:33;;;;;;;2.28;2.08;;;;;;;-145.23;100.00;58621.06;4941442;28;20231;-64
2022/09/12 00:06:00;;;;;;;2.70;2.50;;;;;;;-145.23;100.00;58621.06;4945862;28;20239;-65
2022/09/12 00:08:26;;;;;;;2.55;2.35;;;;;;;-145.23;100.00;58621.06;4942563;28;20740;-64
2022/09/12 00:10:53;;;;;;;3.72;2.85;;;;;;;-145.23;100.00;58621.06;4945183;28;20246;-66
2022/09/12 00:13:21;;;;;;;2.45;2.25;;;;;;;-145.23;100.00;58621.06;4944398;28;20235;-64
2022/09/12 00:15:47;;;;;;;3.17;2.88;;;;;;;-145.23;100.00;58621.06;4939245;28;20708;-65
2022/09/12 00:18:15;;;;;;;2.85;2.63;;;;;;;-145.23;100.00;58621.06;4942878;28;20235;-64
2022/09/12 00:20:42;;;;;;;3.50;1.83;;;;;;;-145.23;100.00;58621.06;4934670;28;20247;-65
2022/09/12 00:23:09;;;;;;;2.00;1.90;;;;;;;-145.23;100.00;58621.06;4940012;28;20235;-66
2022/09/12 00:25:41;;;;;;;2.20;1.83;;;;;;;-145.23;100.00;58621.06;4942275;28;20239;-66
2022/09/12 00:28:08;;;;;;;3.72;2.50;;;;;;;-145.23;100.00;58621.06;4943039;28;20239;-65
2022/09/12 00:30:40;;;;;;;1.80;1.70;;;;;;;-145.23;100.00;58621.06;4939104;28;20526;-66
2022/09/12 00:33:07;;;;;;;2.72;2.42;;;;;;;-145.23;100.00;58621.06;4941791;28;20243;-65
2022/09/12 00:35:33;;;;;;;2.80;2.60;;;;;;;-145.23;100.00;58621.06;4943092;28;20263;-64
2022/09/12 00:38:00;;;;;;;2.28;2.08;;;;;;;-145.23;100.00;58621.06;4938150;28;20858;-64
2022/09/12 00:40:27;;;;;;;2.42;2.03;;;;;;;-145.23;100.00;58621.06;4937062;28;20284;-64
2022/09/12 00:42:53;;;;;;;2.47;2.28;;;;;;;-145.23;100.00;58621.06;4939968;28;20302;-64
2022/09/12 00:45:30;;;;;;;2.60;2.40;;;;;;;-145.23;100.00;58621.06;4943080;28;20261;-64
2022/09/12 00:48:02;;;;;;;2.45;2.20;;;;;;;-145.23;100.00;58621.06;4943252;28;20701;-63
2022/09/12 00:50:28;;;;;;;2.85;2.65;;;;;;;-145.23;100.00;58621.06;4944936;28;20271;-64
2022/09/12 00:52:58;;;;;;;3.05;2.85;;;;;;;-145.23;100.00;58621.06;4946294;28;20238;-64
2022/09/12 00:55:26;;;;;;;2.80;2.60;;;;;;;-145.23;100.00;58621.06;4932944;28;20654;-64
2022/09/12 00:57:56;;;;;;;2.55;2.35;;;;;;;-145.23;100.00;58621.06;4940840;28;20251;-64
2022/09/12 01:00:24;;;;;;;2.42;2.22;;;;;;;-145.23;100.00;58621.06;4937529;28;20247;-67
2022/09/12 01:02:54;;;;;;;3.45;2.60;;;;;;;-145.23;100.00;58621.06;4948401;28;20261;-64
2022/09/12 01:05:23;;;;;;;3.10;2.80;;;;;;;-145.23;100.00;58621.06;4940389;28;20231;-64
2022/09/12 01:07:51;;;;;;;2.67;2.42;;;;;;;-145.23;100.00;58621.06;4943854;28;20239;-65
2022/09/12 01:10:18;;;;;;;3.05;2.75;;;;;;;-145.23;100.00;58621.06;4942450;28;20980;-65
2022/09/12 01:12:45;;;;;;;4.55;3.00;;;;;;;-145.23;100.00;58621.06;4944197;28;20543;-64
2022/09/12 01:15:12;;;;;;;4.20;2.40;;;;;;;-145.23;100.00;58621.06;4933817;28;20325;-64
2022/09/12 01:17:48;;;;;;;2.42;2.22;;;;;;;-145.23;100.00;58621.06;4932905;28;20250;-63
2022/09/12 01:20:35;;;;;;;2.60;2.40;;;;;;;-145.23;100.00;58621.06;4941970;28;20258;-65
2022/09/12 01:23:50;;;;;;;3.08;2.88;;;;;;;-145.23;100.00;58621.06;4934013;28;20235;-64
2022/09/12 01:26:31;;;;;;;3.10;2.65;;;;;;;-145.23;100.00;58621.06;4903108;29;20242;-63
2022/09/12 01:29:15;;;;;;;2.25;2.15;;;;;;;-145.23;100.00;58621.06;4939427;28;20251;-63
2022/09/12 01:31:48;;;;;;;2.40;2.20;;;;;;;-145.23;100.00;58621.06;4934353;28;20615;-64
2022/09/12 01:34:20;;;;;;;4.72;2.78;;;;;;;-145.23;100.00;58621.06;4947115;28;20342;-63
2022/09/12 01:36:52;;;;;;;2.75;2.40;;;;;;;-145.23;100.00;58621.06;4945639;28;20254;-64
2022/09/12 01:39:27;;;;;;;3.15;2.85;;;;;;;-145.23;100.00;58621.06;4946239;28;20235;-63
2022/09/12 01:41:59;;;;;;;2.72;2.53;;;;;;;-145.23;100.00;58621.06;4936448;28;20239;-63
2022/09/12 01:44:35;;;;;;;2.67;2.47;;;;;;;-145.23;100.00;58621.06;4947508;28;20236;-64
2022/09/12 01:47:07;;;;;;;3.30;3.00;;;;;;;-145.23;100.00;58621.06;4946561;28;20234;-63
2022/09/12 01:49:38;;;;;;;3.20;2.83;;;;;;;-145.23;100.00;58621.06;4947484;28;20263;-64
2022/09/12 01:52:14;;;;;;;2.97;2.67;;;;;;;-145.23;100.00;58621.06;4945753;28;20251;-63
2022/09/12 01:54:44;;;;;;;2.75;2.55;;;;;;;-145.23;100.00;58621.06;4933274;28;20231;-64
2022/09/12 01:57:13;;;;;;;3.08;2.88;;;;;;;-145.23;100.00;58621.06;4940755;28;20273;-63
2022/09/12 01:59:44;;;;;;;2.72;2.53;;;;;;;-145.23;100.00;58621.06;4948223;28;20262;-63
2022/09/12 02:02:15;;;;;;;4.30;2.90;;;;;;;-145.23;100.00;58621.06;4945223;28;20248;-64
2022/09/12 02:04:46;;;;;;;2.85;2.65;;;;;;;-145.23;100.00;58621.06;4945131;28;20239;-64
2022/09/12 02:07:16;;;;;;;2.88;2.65;;;;;;;-145.23;100.00;58621.06;4940735;28;21129;-65
2022/09/12 02:09:46;;;;;;;3.10;2.90;;;;;;;-145.23;100.00;58621.06;4949186;28;20266;-66
2022/09/12 02:12:15;;;;;;;3.20;2.92;;;;;;;-145.23;100.00;58621.06;4947086;28;20263;-65
2022/09/12 02:14:45;;;;;;;2.72;2.58;;;;;;;-145.23;100.00;58621.06;4943760;28;20965;-64
2022/09/12 02:17:15;;;;;;;3.20;3.00;;;;;;;-145.23;100.00;58621.06;4942662;28;20470;-64
2022/09/12 02:19:45;;;;;;;2.67;2.58;;;;;;;-145.23;100.00;58621.06;4946530;28;20483;-64
2022/09/12 02:22:14;;;;;;;2.88;2.67;;;;;;;-145.23;100.00;58621.06;4944836;28;20235;-64
2022/09/12 02:24:43;;;;;;;3.15;2.95;;;;;;;-145.23;100.00;58621.06;4950589;28;20231;-64
2022/09/12 02:27:13;;;;;;;3.20;2.90;;;;;;;-145.23;100.00;58621.06;4941062;28;20245;-64
2022/09/12 02:29:40;;;;;;;3.35;3.05;;;;;;;-145.23;100.00;58621.06;4945697;28;20236;-65
2022/09/12 02:32:15;;;;;;;3.47;3.28;;;;;;;-145.23;100.00;58621.06;4940042;28;20709;-64
2022/09/12 02:34:48;;;;;;;2.90;2.70;;;;;;;-145.23;100.00;58621.06;4939925;28;20239;-66
2022/09/12 02:37:22;;;;;;;3.10;2.78;;;;;;;-145.23;100.00;58621.06;4942148;28;20231;-64
2022/09/12 02:39:49;;;;;;;3.00;2.80;;;;;;;-145.23;100.00;58621.06;4946666;28;20238;-65
2022/09/12 02:42:15;;;;;;;3.50;3.20;;;;;;;-145.23;100.00;58621.06;4950875;28;20235;-65
2022/09/12 02:44:42;;;;;;;3.17;2.97;;;;;;;-145.23;100.00;58621.06;4944862;28;20785;-66
2022/09/12 02:47:12;;;;;;;2.80;2.60;;;;;;;-145.23;100.00;58621.06;4951177;28;20792;-64
2022/09/12 02:49:40;;;;;;;4.15;3.28;;;;;;;-145.23;100.00;58621.06;4942519;28;20243;-64
2022/09/12 02:52:07;;;;;;;2.88;2.67;;;;;;;-145.23;100.00;58621.06;4948939;28;20319;-64
2022/09/12 02:54:34;;;;;;;2.92;2.72;;;;;;;-145.23;100.00;58621.06;4947417;28;20897;-63
2022/09/12 02:57:01;;;;;;;3.20;2.90;;;;;;;-145.23;100.00;58621.06;4943572;28;20482;-64
2022/09/12 02:59:27;;;;;;;3.17;2.90;;;;;;;-145.23;100.00;58621.06;4946343;28;20242;-63
2022/09/12 03:02:15;;;;;;;3.50;3.20;;;;;;;-145.23;100.00;58621.06;4942309;28;20713;-64
2022/09/12 03:04:53;;;;;;;2.85;2.63;;;;;;;-145.23;100.00;58621.06;4949171;28;20247;-63
2022/09/12 03:07:27;;;;;;;3.75;3.28;;;;;;;-145.23;100.00;58621.06;4942120;28;20547;-64
2022/09/12 03:09:59;;;;;;;3.72;2.85;;;;;;;-145.23;100.00;58621.06;4936938;28;20396;-65
2022/09/12 03:12:36;;;;;;;3.78;3.40;;;;;;;-145.23;100.00;58621.06;4948631;28;20590;-64
2022/09/12 03:15:12;;;;;;;3.80;3.28;;;;;;;-145.23;100.00;58621.06;4949868;28;20309;-64
2022/09/12 03:17:47;;;;;;;4.93;3.38;;;;;;;-145.23;100.00;58621.06;4943853;28;20366;-65
2022/09/12 03:20:18;;;;;;;3.13;2.92;;;;;;;-145.23;100.00;58621.06;4946288;28;20258;-65
2022/09/12 03:22:51;;;;;;;3.42;3.22;;;;;;;-145.23;100.00;58621.06;4944161;28;20238;-64
2022/09/12 03:25:22;;;;;;;3.28;2.97;;;;;;;-145.23;100.00;58621.06;4942173;28;20259;-65
2022/09/12 03:27:55;;;;;;;2.97;2.78;;;;;;;-145.23;100.00;58621.06;4936617;28;20231;-64
2022/09/12 03:30:22;;;;;;;2.95;2.75;;;;;;;-145.23;100.00;58621.06;4941552;28;20232;-65
2022/09/12 03:32:51;;;;;;;3.95;2.88;;;;;;;-145.23;100.00;58621.06;4944642;28;20239;-64
2022/09/12 03:35:20;;;;;;;3.38;3.08;;;;;;;-145.23;100.00;58621.06;4945416;28;20235;-63
2022/09/12 03:37:47;;;;;;;3.90;2.80;;;;;;;-145.23;100.00;58621.06;4948135;28;20751;-64
2022/09/12 03:40:14;;;;;;;4.63;3.72;;;;;;;-145.23;100.00;58621.06;4938603;28;20244;-63
2022/09/12 03:42:41;;;;;;;3.78;3.47;;;;;;;-145.23;100.00;58621.06;4942316;28;20267;-63
2022/09/12 03:45:09;;;;;;;3.45;3.20;;;;;;;-145.23;100.00;58621.06;4946636;28;20267;-64
2022/09/12 03:47:36;;;;;;;3.35;3.05;;;;;;;-145.23;100.00;58621.06;4946529;28;20896;-62
2022/09/12 03:50:02;;;;;;;4.05;3.45;;;;;;;-145.23;100.00;58621.06;4944874;28;20251;-64
2022/09/12 03:52:30;;;;;;;3.00;2.80;;;;;;;-145.23;100.00;58621.06;4938942;28;20228;-63
2022/09/12 03:54:57;;;;;;;3.30;3.10;;;;;;;-145.23;100.00;58621.06;4937142;28;20240;-65
2022/09/12 03:57:23;;;;;;;3.60;3.30;;;;;;;-145.23;100.00;58621.06;4937264;28;20258;-64
2022/09/12 03:59:50;;;;;;;3.20;3.00;;;;;;;-145.23;100.00;58621.06;4945493;28;20307;-64
2022/09/12 04:02:17;;;;;;;3.63;3.33;;;;;;;-145.23;100.00;58621.06;4943921;28;20239;-63
2022/09/12 04:04:45;;;;;;;3.20;3.00;;;;;;;-145.23;100.00;58621.06;4938012;28;20243;-63
2022/09/12 04:07:11;;;;;;;4.25;3.85;;;;;;;-145.23;100.00;58621.06;4940026;28;20234;-63
2022/09/12 04:09:39;;;;;;;4.18;3.72;;;;;;;-145.23;100.00;58621.06;4944125;28;20708;-63
2022/09/12 04:12:06;;;;;;;4.32;3.65;;;;;;;-145.23;100.00;58621.06;4943324;28;20250;-62
2022/09/12 04:14:33;;;;;;;5.20;3.58;;;;;;;-145.23;100.00;58621.06;4937318;28;20244;-62
2022/09/12 04:16:59;;;;;;;4.15;3.85;;;;;;;-145.23;100.00;58621.06;4940618;28;20242;-63
2022/09/12 04:19:26;;;;;;;4.15;3.75;;;;;;;-145.23;100.00;58621.06;4943361;28;20315;-63
2022/09/12 04:21:53;;;;;;;4.35;4.05;;;;;;;-145.23;100.00;58621.06;4951393;28;20640;-63
2022/09/12 04:24:19;;;;;;;3.97;3.67;;;;;;;-145.23;100.00;58621.06;4948253;28;20344;-64
2022/09/12 04:26:47;;;;;;;4.22;3.83;;;;;;;-145.23;100.00;58621.06;4939244;28;20231;-63
2022/09/12 04:29:14;;;;;;;4.43;3.75;;;;;;;-145.23;100.00;58621.06;4942731;28;20239;-64
2022/09/12 04:31:41;;;;;;;4.32;4.03;;;;;;;-145.23;100.00;58621.06;4944207;28;20318;-63
2022/09/12 04:34:08;;;;;;;4.40;4.00;;;;;;;-145.23;100.00;58621.06;4947718;28;20262;-64
2022/09/12 04:36:35;;;;;;;4.20;3.78;;;;;;;-145.23;100.00;58621.06;4951162;28;20234;-63
2022/09/12 04:39:02;;;;;;;5.43;4.93;;;;;;;-145.23;100.00;58621.06;4936193;28;20240;-63
2022/09/12 04:41:31;;;;;;;4.35;3.83;;;;;;;-145.23;100.00;58621.06;4945037;28;20228;-63
2022/09/12 04:44:01;;;;;;;4.30;4.00;;;;;;;-145.23;100.00;58621.06;4942253;28;20238;-65
2022/09/12 04:46:28;;;;;;;4.63;4.22;;;;;;;-145.23;100.00;58621.06;4955137;28;20338;-64
2022/09/12 04:48:55;;;;;;;4.60;4.20;;;;;;;-145.23;100.00;58621.06;4947073;28;20239;-64
2022/09/12 04:51:26;;;;;;;5.00;4.55;;;;;;;-145.23;100.00;58621.06;4941792;28;20235;-64
2022/09/12 04:53:54;;;;;;;5.00;4.60;;;;;;;-145.23;100.00;58621.06;4945233;28;20234;-63
2022/09/12 04:56:21;;;;;;;5.63;5.22;;;;;;;-145.23;100.00;58621.06;4948595;28;21400;-65
2022/09/12 04:58:48;;;;;;;5.93;4.28;;;;;;;-145.23;100.00;58621.06;4949629;28;20246;-65
2022/09/12 05:01:17;;;;;;;4.97;4.57;;;;;;;-145.23;100.00;58621.06;4950618;28;20662;-64
2022/09/12 05:03:44;;;;;;;5.38;4.57;;;;;;;-145.23;100.00;58621.06;4950155;28;20227;-64
2022/09/12 05:06:13;;;;;;;4.60;4.20;;;;;;;-145.23;100.00;58621.06;4960874;28;20254;-64
2022/09/12 05:08:40;;;;;;;4.93;4.50;;;;;;;-145.23;100.00;58621.06;4948046;28;20230;-64
2022/09/12 05:11:08;;;;;;;4.70;4.30;;;;;;;-145.23;100.00;58621.06;4951053;28;20813;-64
2022/09/12 05:13:34;;;;;;;5.75;4.35;;;;;;;-145.23;100.00;58621.06;4949641;28;20241;-65
2022/09/12 05:16:03;;;;;;;5.15;4.72;;;;;;;-145.23;100.00;58621.06;4945703;28;20250;-67
2022/09/12 05:18:33;;;;;;;4.68;4.28;;;;;;;-145.23;100.00;58621.06;4948979;28;20666;-65
2022/09/12 05:21:00;;;;;;;5.35;4.93;;;;;;;-145.23;100.00;58621.06;4948949;28;20235;-65
2022/09/12 05:23:26;;;;;;;7.25;5.55;;;;;;;-145.23;100.00;58621.06;4945930;28;20230;-64
2022/09/12 05:25:54;;;;;;;6.05;4.68;;;;;;;-145.23;100.00;58621.06;4954014;28;20242;-65
2022/09/12 05:28:22;;;;;;;4.88;4.47;;;;;;;-145.23;100.00;58621.06;4944559;28;20244;-64
2022/09/12 05:30:48;;;;;;;6.50;4.80;;;;;;;-145.23;100.00;58621.06;4954437;28;20223;-64
2022/09/12 05:33:15;;;;;;;5.05;4.65;;;;;;;-145.23;100.00;58621.06;4945977;28;20253;-64
2022/09/12 05:35:51;;;;;;;6.82;5.35;;;;;;;-145.23;100.00;58621.06;4950057;28;20239;-65
2022/09/12 05:38:17;;;;;;;5.72;5.22;;;;;;;-145.23;100.00;58621.06;4945489;28;20239;-66
2022/09/12 05:40:44;;;;;;;5.28;4.82;;;;;;;-145.23;100.00;58621.06;4951373;28;20267;-67
2022/09/12 05:43:11;;;;;;;5.57;4.88;;;;;;;-145.23;100.00;58621.06;4955470;28;20231;-65
2022/09/12 05:45:37;;;;;;;5.13;4.63;;;;;;;-145.23;100.00;58621.06;4956295;28;20544;-64
2022/09/12 05:48:04;;;;;;;6.60;5.53;;;;;;;-145.23;100.00;58621.06;4950183;28;20334;-66
2022/09/12 05:50:31;;;;;;;9.80;5.35;;;;;;;-145.23;100.00;58621.06;4945867;28;20227;-65
2022/09/12 05:53:00;;;;;;;5.57;5.18;;;;;;;-145.23;100.00;58621.06;4957582;28;20258;-64
2022/09/12 05:55:26;;;;;;;5.72;5.22;;;;;;;-145.23;100.00;58621.06;4950052;28;20233;-65
2022/09/12 05:57:53;;;;;;;6.57;6.00;;;;;;;-145.23;100.00;58621.06;4949987;28;20246;-65
2022/09/12 06:00:20;;;;;;;5.55;4.95;;;;;;;-145.23;100.00;58621.06;4949194;28;20937;-65
2022/09/12 06:02:51;;;;;;;6.15;5.15;;;;;;;-145.23;100.00;58621.06;4952479;28;20253;-65
2022/09/12 06:05:18;;;;;;;6.53;5.93;;;;;;;-145.23;100.00;58621.06;4950904;28;20239;-63
2022/09/12 06:07:45;;;;;;;5.40;4.90;;;;;;;-145.23;100.00;58621.06;4945736;28;20246;-69
2022/09/12 06:10:14;;;;;;;6.72;5.78;;;;;;;-145.23;100.00;58621.06;4947982;28;20246;-65
2022/09/12 06:12:42;;;;;;;12.75;6.00;;;;;;;-145.23;100.00;58621.06;4947454;28;20230;-64
2022/09/12 06:15:09;;;;;;;6.75;6.15;;;;;;;-145.23;100.00;58621.06;4949175;28;20321;-65
2022/09/12 06:17:36;;;;;;;7.10;5.88;;;;;;;-145.23;100.00;58621.06;4955407;28;20254;-64
2022/09/12 06:20:04;;;;;;;6.93;6.30;;;;;;;-145.23;100.00;58621.06;4941403;28;20234;-65
2022/09/12 06:22:30;;;;;;;7.32;6.63;;;;;;;-145.23;100.00;58621.06;4953798;28;20230;-64
2022/09/12 06:24:57;;;;;;;9.23;7.65;;;;;;;-145.23;100.00;58621.06;4950167;28;20290;-64
2022/09/12 06:27:25;;;;;;;7.57;6.82;;;;;;;-145.23;100.00;58621.06;4951186;28;20238;-68
2022/09/12 06:29:51;;;;;;;9.07;8.18;;;;;;;-145.23;100.00;58621.06;4952640;28;20302;-63
2022/09/12 06:32:18;;;;;;;7.50;6.72;;;;;;;-145.23;100.00;58621.06;4947396;28;20231;-63
2022/09/12 06:34:46;;;;;;;7.22;6.47;;;;;;;-145.23;100.00;58621.06;4947514;28;20231;-64
2022/09/12 06:37:13;;;;;;;9.40;8.02;;;;;;;-145.23;100.00;58621.06;4945386;28;20250;-63
2022/09/12 06:39:39;;;;;;;7.88;6.75;;;;;;;-145.23;100.00;58621.06;4946670;28;20243;-63
2022/09/12 06:42:06;;;;;;;7.50;6.18;;;;;;;-145.23;100.00;58621.06;4947127;28;20231;-70
2022/09/12 06:44:34;;;;;;;7.60;6.75;;;;;;;-145.23;100.00;58621.06;4945487;28;20235;-65
2022/09/12 06:47:00;;;;;;;7.35;6.65;;;;;;;-145.23;100.00;58621.06;4955600;28;20670;-65
2022/09/12 06:49:27;;;;;;;8.23;7.45;;;;;;;-145.23;100.00;58621.06;4952105;28;20866;-64
2022/09/12 06:51:54;;;;;;;8.38;7.10;;;;;;;-145.23;100.00;58621.06;4949382;28;20309;-63
2022/09/12 06:54:22;;;;;;;9.07;7.28;;;;;;;-145.23;100.00;58621.06;4945907;28;20231;-64
2022/09/12 06:56:53;;;;;;;7.35;6.30;;;;;;;-145.23;100.00;58621.06;4946271;28;20227;-65
2022/09/12 06:59:20;;;;;;;9.50;7.05;;;;;;;-145.23;100.00;58621.06;4954132;28;20239;-64
2022/09/12 07:01:48;;;;;;;9.00;7.10;;;;;;;-145.23;100.00;58621.06;4944657;28;20231;-64
2022/09/12 07:04:14;;;;;;;7.22;6.53;;;;;;;-145.23;100.00;58621.06;4945089;28;20692;-66
2022/09/12 07:06:43;;;;;;;11.30;6.95;;;;;;;-145.23;100.00;58621.06;4948109;28;20238;-65
2022/09/12 07:09:11;;;;;;;8.15;7.15;;;;;;;-145.23;100.00;58621.06;4951526;28;20237;-66
2022/09/12 07:11:39;;;;;;;8.15;5.82;;;;;;;-145.23;100.00;58621.06;4945127;28;20231;-62
2022/09/12 07:14:07;;;;;;;9.98;6.55;;;;;;;-145.23;100.00;58621.06;4944573;28;20237;-63
2022/09/12 07:16:35;;;;;;;7.93;6.95;;;;;;;-145.23;100.00;58621.06;4956271;28;20258;-65
2022/09/12 07:19:04;;;;;;;8.43;7.22;;;;;;;-145.23;100.00;58621.06;4944361;28;20240;-64
2022/09/12 07:21:31;;;;;;;8.93;7.88;;;;;;;-145.23;100.00;58621.06;4943423;28;20235;-63
2022/09/12 07:23:58;;;;;;;7.55;5.90;;;;;;;-145.23;100.00;58621.06;4949207;28;20334;-63
2022/09/12 07:26:27;;;;;;;6.22;5.25;;;;;;;-145.23;100.00;58621.06;4949210;28;20233;-66
2022/09/12 07:28:56;;;;;;;9.68;6.80;;;;;;;-145.23;100.00;58621.06;4946290;28;20243;-63
2022/09/12 07:31:24;;;;;;;12.45;8.20;;;;;;;-145.23;100.00;58621.06;4947799;28;20324;-64
2022/09/12 07:33:51;;;;;;;11.00;8.25;;;;;;;-145.23;100.00;58621.06;4944406;28;20232;-64
2022/09/12 07:36:21;;;;;;;12.95;8.80;;;;;;;-145.23;100.00;58621.06;4944070;28;20246;-67
2022/09/12 07:38:48;;;;;;;8.80;7.70;;;;;;;-145.23;100.00;58621.06;4941854;28;20231;-65
2022/09/12 07:41:17;;;;;;;7.28;6.57;;;;;;;-145.23;100.00;58621.06;4941837;28;20254;-63
2022/09/12 07:43:44;;;;;;;7.15;5.75;;;;;;;-145.23;100.00;58621.06;4945755;28;20555;-64
2022/09/12 07:46:11;;;;;;;5.53;5.03;;;;;;;-145.23;100.00;58621.06;4944510;28;20235;-64
2022/09/12 07:48:38;;;;;;;6.32;5.72;;;;;;;-145.23;100.00;58621.06;4946055;28;20319;-62
2022/09/12 07:51:06;;;;;;;5.82;5.32;;;;;;;-145.23;100.00;58621.06;4948198;28;20238;-63
2022/09/12 07:53:36;;;;;;;4.82;4.43;;;;;;;-145.23;100.00;58621.06;4947241;28;20255;-63
2022/09/12 07:56:04;;;;;;;6.55;5.22;;;;;;;-145.23;100.00;58621.06;4949742;28;20246;-63
2022/09/12 07:58:31;;;;;;;5.32;4.20;;;;;;;-145.23;100.00;58621.06;4946255;28;20297;-63
2022/09/12 08:01:02;;;;;;;6.72;4.53;;;;;;;-145.23;100.00;58621.06;4935564;28;20231;-64
2022/09/12 08:03:28;;;;;;;4.30;4.00;;;;;;;-145.23;100.00;58621.06;4945303;28;20246;-64
2022/09/12 08:05:55;;;;;;;4.57;4.00;;;;;;;-145.23;100.00;58621.06;4943962;28;20235;-63
2022/09/12 08:08:22;;;;;;;3.83;3.53;;;;;;;-145.23;100.00;58621.06;4938095;28;20247;-64
2022/09/12 08:10:50;;;;;;;3.10;2.90;;;;;;;-145.23;100.00;58621.06;4944968;28;20280;-64
2022/09/12 08:13:16;;;;;;;2.33;2.08;;;;;;;-145.23;100.00;58621.06;4947409;28;20657;-63
2022/09/12 08:15:43;;;;;;;3.20;2.90;;;;;;;-145.23;100.00;58621.06;4942810;28;20239;-63
2022/09/12 08:18:10;;;;;;;2.75;2.10;;;;;;;-145.23;100.00;58621.06;4942540;28;20242;-64
2022/09/12 08:20:36;;;;;;;2.67;2.03;;;;;;;-145.23;100.00;58621.06;4948807;28;20239;-63
2022/09/12 08:23:03;;;;;;;2.08;1.48;;;;;;;-145.23;100.00;58621.06;4948692;28;20334;-63
2022/09/12 08:25:29;;;;;;;2.30;1.70;;;;;;;-145.23;100.00;58621.06;4944571;28;20240;-63
2022/09/12 08:27:57;;;;;;;1.80;1.70;;;;;;;-145.23;100.00;58621.06;4932656;28;20417;-63
2022/09/12 08:30:24;;;;;;;2.50;2.30;;;;;;;-145.23;100.00;58621.06;4942269;28;20325;-63
2022/09/12 08:32:50;;;;;;;1.42;1.30;;;;;;;-145.23;100.00;58621.06;4944259;28;20242;-63
2022/09/12 08:35:17;;;;;;;1.80;1.70;;;;;;;-145.23;100.00;58621.06;4944428;28;20349;-62
2022/09/12 08:37:43;;;;;;;2.53;2.33;;;;;;;-145.23;100.00;58621.06;4941760;28;20346;-62
2022/09/12 08:40:15;;;;;;;2.25;1.60;;;;;;;-145.23;100.00;58621.06;4940304;28;20574;-62
2022/09/12 08:42:52;;;;;;;1.83;1.73;;;;;;;-145.23;100.00;58621.06;4937403;28;20773;-63
2022/09/12 08:45:23;;;;;;;3.13;2.08;;;;;;;-145.23;100.00;58621.06;4939642;28;20314;-64
2022/09/12 08:47:50;;;;;;;6.65;1.60;;;;;;;-145.23;100.00;58621.06;4933839;28;20275;-61
2022/09/12 08:50:18;;;;;;;2.60;1.40;;;;;;;-145.23;100.00;58621.06;4940149;28;20241;-63
2022/09/12 08:52:55;;;;;;;4.90;2.00;;;;;;;-145.23;100.00;58621.06;4939326;28;20739;-61
2022/09/12 08:55:33;;;;;;;4.15;1.65;;;;;;;-145.23;100.00;58621.06;4940497;28;20278;-62
2022/09/12 08:58:01;;;;;;;1.73;1.38;;;;;;;-145.23;100.00;58621.06;4936802;28;20242;-60
2022/09/12 09:00:37;;;;;;;2.72;1.10;;;;;;;-145.23;100.00;58621.06;4942358;28;20227;-62
2022/09/12 09:03:21;;;;;;;2.90;1.30;;;;;;;-145.23;100.00;58621.06;4933946;28;20311;-64
2022/09/12 09:05:52;;;;;;;0.73;0.73;;;;;;;-145.23;100.00;58621.06;4942991;28;20712;-61
2022/09/12 09:08:32;;;;;;;2.80;1.15;;;;;;;-145.23;100.00;58621.06;4937150;28;20716;-62
2022/09/12 09:11:06;;;;;;;2.20;1.08;;;;;;;-145.23;100.00;58621.06;4940089;28;22144;-64
2022/09/12 09:16:31;;;;;;;3.97;1.75;;;;;;;-145.23;100.00;58621.06;4927242;28;20250;-59
2022/09/12 09:19:01;;;;;;;1.80;1.40;;;;;;;-145.23;100.00;58621.06;4936893;28;20254;-61
2022/09/12 09:21:30;;;;;;;2.65;1.90;;;;;;;-145.23;100.00;58621.06;4946007;28;20235;-60
2022/09/12 09:24:00;;;;;;;1.95;1.25;;;;;;;-145.23;100.00;58621.06;4941817;28;20737;-63
2022/09/12 09:26:31;;;;;;;2.83;1.50;;;;;;;-145.23;100.00;58621.06;4942827;28;20231;-61
2022/09/12 09:29:00;;;;;;;3.80;1.10;;;;;;;-145.23;100.00;58621.06;4943240;28;20235;-64
2022/09/12 09:31:33;;;;;;;2.92;1.80;;;;;;;-145.23;100.00;58621.06;4944021;28;20231;-62
2022/09/12 09:34:00;;;;;;;3.13;1.50;;;;;;;-145.23;100.00;58621.06;4941034;28;20301;-63
2022/09/12 09:36:34;;;;;;;2.55;1.90;;;;;;;-145.23;100.00;58621.06;4940766;28;20267;-61
2022/09/12 09:39:05;;;;;;;4.55;2.20;;;;;;;-145.23;100.00;58621.06;4937037;28;20244;-63
2022/09/12 09:41:42;;;;;;;1.98;1.77;;;;;;;-145.23;100.00;58621.06;4940865;28;20673;-63
2022/09/12 09:44:09;;;;;;;2.67;1.83;;;;;;;-145.23;100.00;58621.06;4947223;28;20754;-63
2022/09/12 09:46:37;;;;;;;3.63;1.90;;;;;;;-145.23;100.00;58621.06;4950409;28;20239;-68
2022/09/12 09:49:05;;;;;;;2.33;1.92;;;;;;;-145.23;100.00;58621.06;4942758;28;20306;-64
2022/09/12 09:51:35;;;;;;;2.38;1.55;;;;;;;-145.23;100.00;58621.06;4945718;28;20239;-61
2022/09/12 09:54:05;;;;;;;2.70;1.63;;;;;;;-145.23;100.00;58621.06;4943908;28;20261;-61
2022/09/12 09:56:33;;;;;;;2.13;1.92;;;;;;;-145.23;100.00;58621.06;4948559;28;20246;-63
2022/09/12 09:59:10;;;;;;;3.75;2.38;;;;;;;-145.23;100.00;58621.06;4943995;28;20246;-60
2022/09/12 10:01:43;;;;;;;2.60;1.67;;;;;;;-145.23;100.00;58621.06;4945118;28;20318;-60
2022/09/12 10:04:18;;;;;;;4.90;1.98;;;;;;;-145.23;100.00;58621.06;4947211;28;20583;-63
2022/09/12 10:06:45;;;;;;;3.17;1.88;;;;;;;-145.23;100.00;58621.06;4941429;28;20251;-61
2022/09/12 10:09:20;;;;;;;1.08;0.98;;;;;;;-145.23;100.00;58621.06;4942273;28;20239;-62
2022/09/12 10:11:48;;;;;;;2.30;1.30;;;;;;;-145.23;100.00;58621.06;4940542;28;20230;-61
2022/09/12 10:14:37;;;;;;;1.35;1.25;;;;;;;-145.23;100.00;58621.06;4941704;28;20232;-61
2022/09/12 10:17:26;;;;;;;3.10;1.40;;;;;;;-145.23;100.00;58621.06;4943037;28;20593;-61
2022/09/12 10:19:53;;;;;;;1.42;1.10;;;;;;;-145.23;100.00;58621.06;4946572;28;20230;-61
2022/09/12 10:22:21;;;;;;;1.17;1.08;;;;;;;-145.23;100.00;58621.06;4940316;28;20239;-61
2022/09/12 10:24:49;;;;;;;1.95;1.05;;;;;;;-145.23;100.00;58621.06;4938019;28;20235;-61
2022/09/12 10:27:20;;;;;;;1.23;0.95;;;;;;;-145.23;100.00;58621.06;4946616;28;20243;-61
2022/09/12 10:29:50;;;;;;;1.10;1.00;;;;;;;-145.23;100.00;58621.06;4943673;28;20285;-60
2022/09/12 10:32:28;;;;;;;0.75;0.75;;;;;;;-145.23;100.00;58621.06;4938348;28;20310;-60
2022/09/12 10:34:59;;;;;;;1.48;0.70;;;;;;;-145.23;100.00;58621.06;4936413;28;20238;-62
2022/09/12 10:37:30;;;;;;;1.13;1.05;;;;;;;-145.23;100.00;58621.06;4940790;28;20239;-62
2022/09/12 10:39:58;;;;;;;0.80;0.80;;;;;;;-145.23;100.00;58621.06;4940559;28;20239;-61
2022/09/12 10:42:45;;;;;;;1.35;0.90;;;;;;;-145.23;100.00;58621.06;4943937;28;20246;-65
2022/09/12 10:45:23;;;;;;;1.13;0.98;;;;;;;-145.23;100.00;58621.06;4941885;28;20227;-60
2022/09/12 10:47:52;;;;;;;0.90;0.90;;;;;;;-145.23;100.00;58621.06;4939555;28;20599;-61
2022/09/12 10:50:25;;;;;;;0.63;0.63;;;;;;;-145.23;100.00;58621.06;4943348;28;21908;-62
2022/09/12 10:52:51;;;;;;;1.98;1.10;;;;;;;-145.23;100.00;58621.06;4942128;28;20339;-67
2022/09/12 10:55:18;;;;;;;2.00;1.20;;;;;;;-145.23;100.00;58621.06;4943516;28;20230;-62
2022/09/12 10:58:23;;;;;;;1.40;1.20;;;;;;;-145.23;100.00;58621.06;4939789;28;20240;-61
2022/09/12 11:00:53;;;;;;;0.77;0.77;;;;;;;-145.23;100.00;58621.06;4940668;28;20724;-63
2022/09/12 11:03:25;;;;;;;1.70;1.00;;;;;;;-145.23;100.00;58621.06;4940784;28;20237;-65
2022/09/12 11:05:54;;;;;;;0.82;0.82;;;;;;;-145.23;100.00;58621.06;4939655;28;20254;-62
2022/09/12 11:08:47;;;;;;;0.85;0.85;;;;;;;-145.23;100.00;58621.06;4943213;28;20258;-63
2022/09/12 11:11:27;;;;;;;1.55;1.30;;;;;;;-145.23;100.00;58621.06;4948543;28;20310;-63
2022/09/12 11:14:05;;;;;;;0.93;0.90;;;;;;;-145.23;100.00;58621.06;4943616;28;20251;-63
2022/09/12 11:16:38;;;;;;;2.13;0.80;;;;;;;-145.23;100.00;58621.06;4941293;28;20246;-63
2022/09/12 11:19:13;;;;;;;1.20;1.20;;;;;;;-145.23;100.00;58621.06;4945173;28;20250;-59
2022/09/12 11:21:52;;;;;;;1.67;0.98;;;;;;;-145.23;100.00;58621.06;4937964;28;20235;-62
2022/09/12 11:24:30;;;;;;;1.33;1.23;;;;;;;-145.23;100.00;58621.06;4947354;28;20756;-62